createdAt,value
2024-02-08T00:02:09.503Z,49.84
2024-02-08T00:06:40.907Z,51.29
2024-02-08T00:11:09.178Z,51.70
2024-02-08T00:15:11.241Z,51.04
2024-02-08T00:19:16.808Z,50.13
2024-02-08T00:23:18.953Z,51.18
2024-02-08T00:27:20.699Z,52.21
2024-02-08T00:31:22.401Z,52.25
2024-02-08T00:35:24.500Z,52.69
2024-02-08T00:39:26.740Z,51.42
2024-02-08T00:43:28.302Z,52.69
2024-02-08T00:47:29.880Z,52.28
2024-02-08T00:51:32.532Z,50.81
2024-02-08T00:55:37.088Z,50.32
2024-02-08T00:59:39.375Z,52.67
2024-02-08T01:03:41.156Z,50.02
2024-02-08T01:07:42.772Z,50.27
2024-02-08T01:11:44.310Z,50.66
2024-02-08T01:15:48.083Z,50.90
2024-02-08T01:19:51.340Z,51.37
2024-02-08T01:23:53.375Z,51.84
2024-02-08T01:27:56.433Z,56.12
2024-02-08T01:31:58.027Z,56.51
2024-02-08T01:35:59.534Z,56.63
2024-02-08T01:40:01.064Z,56.49
2024-02-08T01:44:08.551Z,55.91
2024-02-08T01:48:12.914Z,53.56
2024-02-08T01:52:20.079Z,53.38
2024-02-08T01:56:21.977Z,52.70
2024-02-08T02:00:23.549Z,54.35
2024-02-08T02:04:25.117Z,52.70
2024-02-08T02:08:29.586Z,56.25
2024-02-08T02:12:31.642Z,57.17
2024-02-08T02:16:33.416Z,56.11
2024-02-08T02:20:35.264Z,56.52
2024-02-08T02:24:38.078Z,59.51
2024-02-08T02:28:41.560Z,57.92
2024-02-08T02:32:47.060Z,57.88
2024-02-08T02:36:54.488Z,56.86
2024-02-08T02:40:56.226Z,56.40
2024-02-08T02:44:57.850Z,56.04
2024-02-08T02:48:59.540Z,55.85
2024-02-08T02:53:01.525Z,55.89
2024-02-08T02:57:04.211Z,56.35
2024-02-08T03:01:06.102Z,55.64
2024-02-08T03:05:08.619Z,54.49
2024-02-08T03:09:16.301Z,55.95
2024-02-08T03:13:18.034Z,55.56
2024-02-08T03:17:19.836Z,54.66
2024-02-08T03:21:23.200Z,53.90
2024-02-08T03:25:25.929Z,51.52
2024-02-08T03:29:27.584Z,50.27
2024-02-08T03:33:29.306Z,51.49
2024-02-08T03:37:31.037Z,50.70
2024-02-08T03:41:32.925Z,51.59
2024-02-08T03:45:40.329Z,50.68
2024-02-08T03:49:48.792Z,50.24
2024-02-08T03:53:50.336Z,49.89
2024-02-08T03:57:51.818Z,50.19
2024-02-08T04:02:04.392Z,49.51
2024-02-08T04:06:26.097Z,48.66
2024-02-08T04:10:50.828Z,49.00
2024-02-08T04:15:11.038Z,48.31
2024-02-08T04:19:31.667Z,46.89
2024-02-08T04:23:52.225Z,46.63
2024-02-08T04:28:12.484Z,48.32
2024-02-08T04:32:32.832Z,47.92
2024-02-08T04:36:53.200Z,49.19
2024-02-08T04:41:13.173Z,49.91
2024-02-08T04:45:33.253Z,50.38
2024-02-08T04:49:53.334Z,51.65
2024-02-08T04:53:56.292Z,51.75
2024-02-08T04:58:19.606Z,49.73
2024-02-08T05:02:19.224Z,51.49
2024-02-08T05:06:22.684Z,49.60
2024-02-08T05:10:29.245Z,50.21
2024-02-08T05:14:30.901Z,49.21
2024-02-08T05:18:32.916Z,49.17
2024-02-08T05:22:34.606Z,49.38
2024-02-08T05:26:36.718Z,50.44
2024-02-08T05:30:38.193Z,50.44
2024-02-08T05:34:40.725Z,50.30
2024-02-08T05:38:42.686Z,50.40
2024-02-08T05:42:44.319Z,50.29
2024-02-08T05:46:47.177Z,49.86
2024-02-08T05:50:48.658Z,49.96
2024-02-08T05:58:54.745Z,51.08
2024-02-08T06:02:58.224Z,52.17
2024-02-08T06:07:02.368Z,50.03
2024-02-08T06:11:06.455Z,50.32
2024-02-08T06:15:26.255Z,48.71
2024-02-08T06:19:35.535Z,47.27
2024-02-08T06:23:44.106Z,48.68
2024-02-08T06:27:48.827Z,49.80
2024-02-08T06:31:52.122Z,51.34
2024-02-08T06:35:57.984Z,53.24
2024-02-08T06:40:01.093Z,54.17
2024-02-08T06:44:21.245Z,52.59
2024-02-08T06:48:49.502Z,52.71
2024-02-08T06:53:09.932Z,55.15
2024-02-08T06:57:30.432Z,54.52
2024-02-08T07:01:50.594Z,56.46
2024-02-08T07:06:10.847Z,56.43
2024-02-08T07:10:31.757Z,52.77
2024-02-08T07:14:52.008Z,55.76
2024-02-08T07:19:12.420Z,55.51
2024-02-08T07:23:32.726Z,56.18
2024-02-08T07:27:52.980Z,54.17
2024-02-08T07:32:12.921Z,54.98
2024-02-08T07:36:33.162Z,56.77
2024-02-08T07:40:37.786Z,55.86
2024-02-08T07:44:40.509Z,59.01
2024-02-08T07:48:45.418Z,59.03
2024-02-08T07:52:47.822Z,56.65
2024-02-08T07:56:50.212Z,55.07
2024-02-08T08:00:58.000Z,56.28
2024-02-08T08:05:00.060Z,56.41
2024-02-08T08:09:19.657Z,56.13
2024-02-08T08:13:41.332Z,58.69
2024-02-08T08:17:44.387Z,53.54
2024-02-08T08:21:59.389Z,53.19
2024-02-08T08:26:01.302Z,53.38
2024-02-08T08:30:07.623Z,58.80
2024-02-08T08:34:24.493Z,60.58
2024-02-08T08:38:34.602Z,58.34
2024-02-08T08:42:36.325Z,58.80
2024-02-08T08:46:39.231Z,59.03
2024-02-08T08:50:41.341Z,55.75
2024-02-08T08:54:58.022Z,55.33
2024-02-08T08:59:02.540Z,54.68
2024-02-08T09:03:11.465Z,60.27
2024-02-08T09:07:13.660Z,56.16
2024-02-08T09:11:16.002Z,55.07
2024-02-08T09:15:43.818Z,55.03
2024-02-08T09:19:48.914Z,53.40
2024-02-08T09:23:52.830Z,51.48
2024-02-08T09:27:56.989Z,50.12
2024-02-08T09:31:59.456Z,50.67
2024-02-08T09:36:03.668Z,48.80
2024-02-08T09:40:19.575Z,48.89
2024-02-08T09:44:27.178Z,47.49
2024-02-08T09:48:38.611Z,47.24
2024-02-08T09:52:50.846Z,47.39
2024-02-08T09:57:02.855Z,47.20
2024-02-08T10:01:32.037Z,46.91
2024-02-08T10:05:51.797Z,45.58
2024-02-08T10:10:00.786Z,45.27
2024-02-08T10:14:03.830Z,45.77
2024-02-08T10:18:11.757Z,45.08
2024-02-08T10:22:27.936Z,44.83
2024-02-08T10:26:40.231Z,45.13
2024-02-08T10:30:45.815Z,44.20
2024-02-08T10:34:53.430Z,45.12
2024-02-08T10:39:04.206Z,43.74
2024-02-08T10:43:19.563Z,43.96
2024-02-08T10:47:31.292Z,43.57
2024-02-08T10:51:44.831Z,43.94
2024-02-08T10:56:00.132Z,44.16
2024-02-08T11:00:14.980Z,44.14
2024-02-08T11:04:29.770Z,44.65
2024-02-08T11:08:34.422Z,44.52
2024-02-08T11:12:40.919Z,45.08
2024-02-08T11:16:45.931Z,44.91
2024-02-08T11:20:47.632Z,46.24
2024-02-08T11:24:59.226Z,44.34
2024-02-08T11:29:19.711Z,43.24
2024-02-08T11:33:34.459Z,44.76
2024-02-08T11:37:39.481Z,44.38
2024-02-08T11:41:44.074Z,45.02
2024-02-08T11:45:53.320Z,44.85
2024-02-08T11:50:05.021Z,43.99
2024-02-08T11:54:10.184Z,44.36
2024-02-08T11:58:13.290Z,44.11
2024-02-08T12:02:17.836Z,43.37
2024-02-08T12:06:22.930Z,45.27
2024-02-08T12:10:24.709Z,45.88
2024-02-08T12:14:27.978Z,44.98
2024-02-08T12:18:30.104Z,44.97
2024-02-08T12:22:32.681Z,45.78
2024-02-08T12:26:39.685Z,45.91
2024-02-08T12:30:42.234Z,44.71
2024-02-08T12:34:48.789Z,44.92
2024-02-08T12:38:52.819Z,44.82
2024-02-08T12:42:54.710Z,43.11
2024-02-08T12:46:57.057Z,42.52
2024-02-08T12:51:04.565Z,41.83
2024-02-08T12:55:06.206Z,41.93
2024-02-08T12:59:07.852Z,41.97
2024-02-08T13:03:10.142Z,40.72
2024-02-08T13:07:19.727Z,40.73
2024-02-08T13:11:21.970Z,41.70
2024-02-08T13:15:23.892Z,42.10
2024-02-08T13:19:31.214Z,41.82
2024-02-08T13:23:35.436Z,41.76
2024-02-08T13:27:39.604Z,41.11
2024-02-08T13:31:44.459Z,41.53
2024-02-08T13:35:47.245Z,40.42
2024-02-08T13:39:53.009Z,42.55
2024-02-08T13:43:56.202Z,42.42
2024-02-08T13:47:59.627Z,41.81
2024-02-08T13:52:05.071Z,40.42
2024-02-08T13:56:09.456Z,39.69
2024-02-08T14:00:11.385Z,40.23
2024-02-08T14:04:22.421Z,39.89
2024-02-08T14:08:28.927Z,41.24
2024-02-08T14:12:34.913Z,41.82
2024-02-08T14:16:38.288Z,42.40
2024-02-08T14:20:44.281Z,42.99
2024-02-08T14:24:52.304Z,42.76
2024-02-08T14:28:57.065Z,41.66
2024-02-08T14:32:58.843Z,41.57
2024-02-08T14:37:00.497Z,40.91
2024-02-08T14:41:05.200Z,41.05
2024-02-08T14:45:13.006Z,42.33
2024-02-08T14:49:30.554Z,41.73
2024-02-08T14:53:33.471Z,41.64
2024-02-08T14:57:40.411Z,41.88
2024-02-08T15:01:43.797Z,41.09
2024-02-08T15:05:49.438Z,41.58
2024-02-08T15:09:53.605Z,40.62
2024-02-08T15:13:56.465Z,41.27
2024-02-08T15:18:12.580Z,42.34
2024-02-08T15:22:28.149Z,42.23
2024-02-08T15:26:38.184Z,42.49
2024-02-08T15:30:42.053Z,43.31
2024-02-08T15:34:48.332Z,42.32
2024-02-08T15:39:02.172Z,43.66
2024-02-08T15:43:12.019Z,43.17
2024-02-08T15:47:16.476Z,42.62
2024-02-08T15:51:25.265Z,42.92
2024-02-08T15:55:39.834Z,43.75
2024-02-08T15:59:47.424Z,45.52
2024-02-08T16:03:58.104Z,48.20
2024-02-08T16:08:07.053Z,47.93
2024-02-08T16:12:15.715Z,47.40
2024-02-08T16:16:20.156Z,46.20
2024-02-08T16:20:25.456Z,45.01
2024-02-08T16:24:31.831Z,46.74
2024-02-08T16:28:38.884Z,48.02
2024-02-08T16:32:47.992Z,48.60
2024-02-08T16:36:54.007Z,48.94
2024-02-08T16:40:57.178Z,47.02
2024-02-08T16:45:06.819Z,46.76
2024-02-08T16:49:09.036Z,47.58
2024-02-08T16:53:15.148Z,47.56
2024-02-08T16:57:19.763Z,47.85
2024-02-08T17:01:30.996Z,46.96
2024-02-08T17:05:52.480Z,47.89
2024-02-08T17:09:59.706Z,49.02
2024-02-08T17:14:04.603Z,49.22
2024-02-08T17:18:17.764Z,50.36
2024-02-08T17:22:30.258Z,50.34
2024-02-08T17:26:35.123Z,51.09
2024-02-08T17:31:15.660Z,51.16
2024-02-08T17:35:18.120Z,49.33
2024-02-08T17:39:40.986Z,48.80
2024-02-08T17:43:51.242Z,48.74
2024-02-08T17:48:01.056Z,49.71
2024-02-08T17:52:07.459Z,51.91
2024-02-08T17:56:12.226Z,52.38
2024-02-08T18:00:33.773Z,51.67
2024-02-08T18:04:38.307Z,50.68
2024-02-08T18:08:42.101Z,53.83
2024-02-08T18:12:55.964Z,55.11
2024-02-08T18:17:20.124Z,53.45
2024-02-08T18:21:22.189Z,51.06
2024-02-08T18:25:30.950Z,52.50
2024-02-08T18:29:37.018Z,53.03
2024-02-08T18:33:38.955Z,53.38
2024-02-08T18:37:40.541Z,53.29
2024-02-08T18:41:52.000Z,53.12
2024-02-08T18:45:57.047Z,50.34
2024-02-08T18:49:59.627Z,50.97
2024-02-08T18:54:01.788Z,52.38
2024-02-08T18:58:03.392Z,50.79
2024-02-08T19:02:09.182Z,50.38
2024-02-08T19:06:15.557Z,49.34
2024-02-08T19:10:17.238Z,49.86
2024-02-08T19:14:22.667Z,49.42
2024-02-08T19:18:27.053Z,49.43
2024-02-08T19:22:29.040Z,50.46
2024-02-08T19:26:33.468Z,49.23
2024-02-08T19:30:36.129Z,48.10
2024-02-08T19:34:40.998Z,48.52
2024-02-08T19:38:44.325Z,49.10
2024-02-08T19:42:45.778Z,50.26
2024-02-08T19:46:57.215Z,50.99
2024-02-08T19:51:10.229Z,50.94
2024-02-08T19:55:22.045Z,51.24
2024-02-08T19:59:28.326Z,52.24
2024-02-08T20:03:32.994Z,52.55
2024-02-08T20:07:40.747Z,51.11
2024-02-08T20:11:42.910Z,50.68
2024-02-08T20:15:45.809Z,50.68
2024-02-08T20:19:48.210Z,49.80
2024-02-08T20:23:49.908Z,49.94
2024-02-08T20:27:55.041Z,49.98
2024-02-08T20:31:57.823Z,49.96
2024-02-08T20:36:01.714Z,50.22
2024-02-08T20:40:07.012Z,51.02
2024-02-08T20:44:11.876Z,50.18
2024-02-08T20:48:16.058Z,49.94
2024-02-08T20:52:19.105Z,50.77
2024-02-08T20:56:29.506Z,50.91
2024-02-08T21:00:32.356Z,51.09
2024-02-08T21:04:34.520Z,51.63
2024-02-08T21:08:39.540Z,51.68
2024-02-08T21:12:43.375Z,51.90
2024-02-08T21:16:44.848Z,53.62
2024-02-08T21:20:47.162Z,51.60
2024-02-08T21:24:50.546Z,51.51
2024-02-08T21:28:52.496Z,53.29
2024-02-08T21:32:56.220Z,54.17
2024-02-08T21:36:57.831Z,52.99
2024-02-08T21:40:59.343Z,52.02
2024-02-08T21:45:01.339Z,51.11
2024-02-08T21:49:03.124Z,53.84
2024-02-08T21:53:06.398Z,54.27
2024-02-08T21:57:09.239Z,55.03
2024-02-08T22:05:36.600Z,52.93
2024-02-08T22:09:38.385Z,53.00
2024-02-08T22:13:42.204Z,51.31
2024-02-08T22:17:52.557Z,50.79
2024-02-08T22:21:54.347Z,51.21
2024-02-08T22:25:55.963Z,57.11
2024-02-08T22:29:57.522Z,51.91
2024-02-08T22:33:59.449Z,51.57
2024-02-08T22:38:02.158Z,52.48
2024-02-08T22:42:07.171Z,51.80
2024-02-08T22:46:09.490Z,52.26
2024-02-08T22:50:16.880Z,52.15
2024-02-08T22:54:21.606Z,51.46
2024-02-08T22:58:25.275Z,51.45
2024-02-08T23:02:26.922Z,50.32
2024-02-08T23:06:34.442Z,59.23
2024-02-08T23:10:39.135Z,53.10
2024-02-08T23:14:41.198Z,52.55
2024-02-08T23:18:43.027Z,52.66
2024-02-08T23:22:48.548Z,52.23
2024-02-08T23:26:51.315Z,52.70
2024-02-08T23:30:55.656Z,53.59
2024-02-08T23:34:58.551Z,53.18
2024-02-08T23:39:01.280Z,53.04
2024-02-08T23:43:08.868Z,52.76
2024-02-08T23:47:18.752Z,52.14
2024-02-08T23:51:23.573Z,51.91
2024-02-08T23:55:28.933Z,53.34
2024-02-08T23:59:30.866Z,51.79
